sensor_id;sensor_type;location;lat;lon;timestamp;P1;durP1;ratioP1;P2;durP2;ratioP2
11287;SDS011;5700;50.996;7.044;2024-02-16T00:02:29;1.88;;;0.90;;
11287;SDS011;5700;50.996;7.044;2024-02-16T00:05:32;3.08;;;1.25;;
11287;SDS011;5700;50.996;7.044;2024-02-16T00:08:33;1.85;;;1.02;;
11287;SDS011;5700;50.996;7.044;2024-02-16T00:11:38;2.58;;;0.93;;
11287;SDS011;5700;50.996;7.044;2024-02-16T00:14:40;3.58;;;1.40;;
11287;SDS011;5700;50.996;7.044;2024-02-16T00:17:42;1.77;;;0.98;;
11287;SDS011;5700;50.996;7.044;2024-02-16T00:20:44;3.35;;;1.60;;
11287;SDS011;5700;50.996;7.044;2024-02-16T00:23:46;2.90;;;1.00;;
11287;SDS011;5700;50.996;7.044;2024-02-16T00:26:47;2.83;;;1.30;;
11287;SDS011;5700;50.996;7.044;2024-02-16T00:29:49;2.95;;;1.25;;
11287;SDS011;5700;50.996;7.044;2024-02-16T00:32:53;1.75;;;0.80;;
11287;SDS011;5700;50.996;7.044;2024-02-16T00:35:54;1.40;;;0.80;;
11287;SDS011;5700;50.996;7.044;2024-02-16T00:38:56;2.30;;;1.00;;
11287;SDS011;5700;50.996;7.044;2024-02-16T00:41:59;2.50;;;1.13;;
11287;SDS011;5700;50.996;7.044;2024-02-16T00:45:00;5.20;;;1.10;;
11287;SDS011;5700;50.996;7.044;2024-02-16T00:48:05;2.13;;;1.15;;
11287;SDS011;5700;50.996;7.044;2024-02-16T00:51:07;2.10;;;0.88;;
11287;SDS011;5700;50.996;7.044;2024-02-16T00:54:09;3.25;;;1.08;;
11287;SDS011;5700;50.996;7.044;2024-02-16T00:57:10;4.25;;;1.40;;
11287;SDS011;5700;50.996;7.044;2024-02-16T01:00:14;1.33;;;0.93;;
11287;SDS011;5700;50.996;7.044;2024-02-16T01:03:17;2.97;;;1.05;;
11287;SDS011;5700;50.996;7.044;2024-02-16T01:06:19;2.88;;;1.10;;
11287;SDS011;5700;50.996;7.044;2024-02-16T01:09:21;2.22;;;1.02;;
11287;SDS011;5700;50.996;7.044;2024-02-16T01:12:22;4.53;;;1.13;;
11287;SDS011;5700;50.996;7.044;2024-02-16T01:15:23;2.90;;;1.17;;
11287;SDS011;5700;50.996;7.044;2024-02-16T01:18:27;3.08;;;1.13;;
11287;SDS011;5700;50.996;7.044;2024-02-16T01:21:29;3.83;;;0.90;;
11287;SDS011;5700;50.996;7.044;2024-02-16T01:24:30;2.70;;;1.10;;
11287;SDS011;5700;50.996;7.044;2024-02-16T01:27:32;1.67;;;0.90;;
11287;SDS011;5700;50.996;7.044;2024-02-16T01:30:35;4.85;;;1.45;;
11287;SDS011;5700;50.996;7.044;2024-02-16T01:33:38;3.42;;;1.00;;
11287;SDS011;5700;50.996;7.044;2024-02-16T01:36:39;3.03;;;1.10;;
11287;SDS011;5700;50.996;7.044;2024-02-16T01:39:41;5.18;;;1.15;;
11287;SDS011;5700;50.996;7.044;2024-02-16T01:42:43;4.53;;;1.27;;
11287;SDS011;5700;50.996;7.044;2024-02-16T01:45:44;3.00;;;1.33;;
11287;SDS011;5700;50.996;7.044;2024-02-16T01:48:48;2.38;;;1.30;;
11287;SDS011;5700;50.996;7.044;2024-02-16T01:51:51;2.50;;;0.93;;
11287;SDS011;5700;50.996;7.044;2024-02-16T01:54:53;1.67;;;0.88;;
11287;SDS011;5700;50.996;7.044;2024-02-16T01:57:54;3.28;;;0.90;;
11287;SDS011;5700;50.996;7.044;2024-02-16T02:00:56;3.45;;;1.05;;
11287;SDS011;5700;50.996;7.044;2024-02-16T02:03:59;1.80;;;1.05;;
11287;SDS011;5700;50.996;7.044;2024-02-16T02:07:10;2.15;;;1.00;;
11287;SDS011;5700;50.996;7.044;2024-02-16T02:10:12;3.13;;;1.10;;
11287;SDS011;5700;50.996;7.044;2024-02-16T02:13:14;2.63;;;0.90;;
11287;SDS011;5700;50.996;7.044;2024-02-16T02:16:16;1.55;;;1.02;;
11287;SDS011;5700;50.996;7.044;2024-02-16T02:19:19;4.88;;;0.98;;
11287;SDS011;5700;50.996;7.044;2024-02-16T02:22:22;3.45;;;1.17;;
11287;SDS011;5700;50.996;7.044;2024-02-16T02:25:24;6.38;;;1.27;;
11287;SDS011;5700;50.996;7.044;2024-02-16T02:28:26;2.10;;;0.88;;
11287;SDS011;5700;50.996;7.044;2024-02-16T02:31:29;3.30;;;1.10;;
11287;SDS011;5700;50.996;7.044;2024-02-16T02:34:31;1.38;;;0.90;;
11287;SDS011;5700;50.996;7.044;2024-02-16T02:37:34;1.33;;;0.77;;
11287;SDS011;5700;50.996;7.044;2024-02-16T02:40:35;1.63;;;1.23;;
11287;SDS011;5700;50.996;7.044;2024-02-16T02:43:37;1.40;;;0.80;;
11287;SDS011;5700;50.996;7.044;2024-02-16T02:46:39;1.35;;;1.00;;
11287;SDS011;5700;50.996;7.044;2024-02-16T02:49:41;1.48;;;0.85;;
11287;SDS011;5700;50.996;7.044;2024-02-16T02:52:44;2.35;;;1.00;;
11287;SDS011;5700;50.996;7.044;2024-02-16T02:55:46;1.63;;;1.00;;
11287;SDS011;5700;50.996;7.044;2024-02-16T02:58:48;2.45;;;1.17;;
11287;SDS011;5700;50.996;7.044;2024-02-16T03:01:49;4.00;;;0.93;;
11287;SDS011;5700;50.996;7.044;2024-02-16T03:04:51;2.47;;;1.00;;
11287;SDS011;5700;50.996;7.044;2024-02-16T03:07:54;3.88;;;1.00;;
11287;SDS011;5700;50.996;7.044;2024-02-16T03:10:55;4.05;;;1.30;;
11287;SDS011;5700;50.996;7.044;2024-02-16T03:14:00;2.50;;;1.20;;
11287;SDS011;5700;50.996;7.044;2024-02-16T03:17:03;3.72;;;1.35;;
11287;SDS011;5700;50.996;7.044;2024-02-16T03:20:05;2.78;;;1.13;;
11287;SDS011;5700;50.996;7.044;2024-02-16T03:23:09;1.88;;;1.08;;
11287;SDS011;5700;50.996;7.044;2024-02-16T03:26:14;5.38;;;1.30;;
11287;SDS011;5700;50.996;7.044;2024-02-16T03:29:16;2.38;;;1.13;;
11287;SDS011;5700;50.996;7.044;2024-02-16T03:32:18;6.30;;;1.40;;
11287;SDS011;5700;50.996;7.044;2024-02-16T03:35:21;4.93;;;1.30;;
11287;SDS011;5700;50.996;7.044;2024-02-16T03:38:24;1.92;;;1.33;;
11287;SDS011;5700;50.996;7.044;2024-02-16T03:41:26;1.48;;;0.98;;
11287;SDS011;5700;50.996;7.044;2024-02-16T03:44:28;2.90;;;1.15;;
11287;SDS011;5700;50.996;7.044;2024-02-16T03:47:29;3.05;;;1.30;;
11287;SDS011;5700;50.996;7.044;2024-02-16T03:50:30;2.10;;;0.93;;
11287;SDS011;5700;50.996;7.044;2024-02-16T03:53:33;3.35;;;1.30;;
11287;SDS011;5700;50.996;7.044;2024-02-16T03:56:35;3.67;;;1.13;;
11287;SDS011;5700;50.996;7.044;2024-02-16T03:59:37;2.35;;;1.08;;
11287;SDS011;5700;50.996;7.044;2024-02-16T04:02:39;3.00;;;0.98;;
11287;SDS011;5700;50.996;7.044;2024-02-16T04:05:41;1.60;;;1.15;;
11287;SDS011;5700;50.996;7.044;2024-02-16T04:08:44;1.80;;;1.00;;
11287;SDS011;5700;50.996;7.044;2024-02-16T04:11:46;3.03;;;1.50;;
11287;SDS011;5700;50.996;7.044;2024-02-16T04:14:47;3.33;;;1.20;;
11287;SDS011;5700;50.996;7.044;2024-02-16T04:17:49;2.92;;;1.13;;
11287;SDS011;5700;50.996;7.044;2024-02-16T04:20:51;4.88;;;2.00;;
11287;SDS011;5700;50.996;7.044;2024-02-16T04:23:54;1.00;;;0.95;;
11287;SDS011;5700;50.996;7.044;2024-02-16T04:26:56;3.75;;;1.10;;
11287;SDS011;5700;50.996;7.044;2024-02-16T04:29:57;2.22;;;1.10;;
11287;SDS011;5700;50.996;7.044;2024-02-16T04:32:59;2.08;;;1.00;;
11287;SDS011;5700;50.996;7.044;2024-02-16T04:36:01;5.68;;;1.45;;
11287;SDS011;5700;50.996;7.044;2024-02-16T04:39:05;4.82;;;1.38;;
11287;SDS011;5700;50.996;7.044;2024-02-16T04:42:07;2.30;;;1.20;;
11287;SDS011;5700;50.996;7.044;2024-02-16T04:45:10;4.65;;;1.30;;
11287;SDS011;5700;50.996;7.044;2024-02-16T04:48:12;1.38;;;1.13;;
11287;SDS011;5700;50.996;7.044;2024-02-16T04:51:14;2.42;;;1.20;;
11287;SDS011;5700;50.996;7.044;2024-02-16T04:54:16;4.93;;;1.20;;
11287;SDS011;5700;50.996;7.044;2024-02-16T04:57:18;2.50;;;1.55;;
11287;SDS011;5700;50.996;7.044;2024-02-16T05:00:20;2.03;;;1.33;;
11287;SDS011;5700;50.996;7.044;2024-02-16T05:03:22;4.93;;;1.48;;
11287;SDS011;5700;50.996;7.044;2024-02-16T05:06:24;3.05;;;1.45;;
11287;SDS011;5700;50.996;7.044;2024-02-16T05:09:27;3.92;;;1.70;;
11287;SDS011;5700;50.996;7.044;2024-02-16T05:12:28;2.67;;;1.17;;
11287;SDS011;5700;50.996;7.044;2024-02-16T05:15:30;4.10;;;1.75;;
11287;SDS011;5700;50.996;7.044;2024-02-16T05:18:32;6.85;;;1.50;;
11287;SDS011;5700;50.996;7.044;2024-02-16T05:21:34;4.70;;;1.90;;
11287;SDS011;5700;50.996;7.044;2024-02-16T05:24:37;3.35;;;1.65;;
11287;SDS011;5700;50.996;7.044;2024-02-16T05:27:39;3.60;;;1.27;;
11287;SDS011;5700;50.996;7.044;2024-02-16T05:30:41;2.08;;;1.10;;
11287;SDS011;5700;50.996;7.044;2024-02-16T05:33:43;6.47;;;2.03;;
11287;SDS011;5700;50.996;7.044;2024-02-16T05:36:45;2.92;;;1.48;;
11287;SDS011;5700;50.996;7.044;2024-02-16T05:39:49;2.75;;;1.27;;
11287;SDS011;5700;50.996;7.044;2024-02-16T05:42:57;4.95;;;1.65;;
11287;SDS011;5700;50.996;7.044;2024-02-16T05:45:58;2.78;;;1.30;;
11287;SDS011;5700;50.996;7.044;2024-02-16T05:49:00;4.38;;;1.20;;
11287;SDS011;5700;50.996;7.044;2024-02-16T05:52:02;3.25;;;1.50;;
11287;SDS011;5700;50.996;7.044;2024-02-16T05:55:19;4.03;;;1.38;;
11287;SDS011;5700;50.996;7.044;2024-02-16T05:58:21;4.32;;;1.50;;
11287;SDS011;5700;50.996;7.044;2024-02-16T06:01:23;3.50;;;1.27;;
11287;SDS011;5700;50.996;7.044;2024-02-16T06:04:24;2.95;;;1.38;;
11287;SDS011;5700;50.996;7.044;2024-02-16T06:07:26;3.25;;;1.58;;
11287;SDS011;5700;50.996;7.044;2024-02-16T06:10:29;4.30;;;1.50;;
11287;SDS011;5700;50.996;7.044;2024-02-16T06:13:31;3.45;;;1.75;;
11287;SDS011;5700;50.996;7.044;2024-02-16T06:16:32;3.38;;;1.13;;
11287;SDS011;5700;50.996;7.044;2024-02-16T06:19:34;1.88;;;1.27;;
11287;SDS011;5700;50.996;7.044;2024-02-16T06:22:35;1.52;;;1.00;;
11287;SDS011;5700;50.996;7.044;2024-02-16T06:25:38;3.13;;;1.23;;
11287;SDS011;5700;50.996;7.044;2024-02-16T06:28:39;2.80;;;1.58;;
11287;SDS011;5700;50.996;7.044;2024-02-16T06:31:42;4.22;;;1.65;;
11287;SDS011;5700;50.996;7.044;2024-02-16T06:34:43;3.10;;;1.88;;
11287;SDS011;5700;50.996;7.044;2024-02-16T06:37:46;3.90;;;1.25;;
11287;SDS011;5700;50.996;7.044;2024-02-16T06:40:49;3.50;;;1.75;;
11287;SDS011;5700;50.996;7.044;2024-02-16T06:43:50;5.57;;;1.42;;
11287;SDS011;5700;50.996;7.044;2024-02-16T06:46:52;4.50;;;1.60;;
11287;SDS011;5700;50.996;7.044;2024-02-16T06:49:54;4.47;;;1.50;;
11287;SDS011;5700;50.996;7.044;2024-02-16T06:52:55;5.20;;;1.70;;
11287;SDS011;5700;50.996;7.044;2024-02-16T06:55:58;4.38;;;1.45;;
11287;SDS011;5700;50.996;7.044;2024-02-16T06:58:59;2.45;;;1.17;;
11287;SDS011;5700;50.996;7.044;2024-02-16T07:02:01;3.65;;;1.60;;
11287;SDS011;5700;50.996;7.044;2024-02-16T07:05:03;4.47;;;1.48;;
11287;SDS011;5700;50.996;7.044;2024-02-16T07:08:05;2.15;;;1.20;;
11287;SDS011;5700;50.996;7.044;2024-02-16T07:11:08;2.42;;;1.42;;
11287;SDS011;5700;50.996;7.044;2024-02-16T07:14:11;3.30;;;1.60;;
11287;SDS011;5700;50.996;7.044;2024-02-16T07:17:13;2.47;;;1.42;;
11287;SDS011;5700;50.996;7.044;2024-02-16T07:20:15;2.85;;;1.33;;
11287;SDS011;5700;50.996;7.044;2024-02-16T07:23:17;4.88;;;1.50;;
11287;SDS011;5700;50.996;7.044;2024-02-16T07:26:19;2.58;;;1.50;;
11287;SDS011;5700;50.996;7.044;2024-02-16T07:29:22;3.22;;;1.50;;
11287;SDS011;5700;50.996;7.044;2024-02-16T07:32:23;1.58;;;1.00;;
11287;SDS011;5700;50.996;7.044;2024-02-16T07:35:24;2.13;;;1.10;;
11287;SDS011;5700;50.996;7.044;2024-02-16T07:38:26;3.72;;;1.40;;
11287;SDS011;5700;50.996;7.044;2024-02-16T07:41:30;3.45;;;1.50;;
11287;SDS011;5700;50.996;7.044;2024-02-16T07:44:31;3.47;;;1.40;;
11287;SDS011;5700;50.996;7.044;2024-02-16T07:47:33;2.13;;;1.38;;
11287;SDS011;5700;50.996;7.044;2024-02-16T07:50:34;1.98;;;1.30;;
11287;SDS011;5700;50.996;7.044;2024-02-16T07:53:36;2.33;;;1.27;;
11287;SDS011;5700;50.996;7.044;2024-02-16T07:56:42;3.10;;;1.70;;
11287;SDS011;5700;50.996;7.044;2024-02-16T07:59:44;4.20;;;1.35;;
11287;SDS011;5700;50.996;7.044;2024-02-16T08:02:46;2.42;;;1.25;;
11287;SDS011;5700;50.996;7.044;2024-02-16T08:05:47;2.65;;;1.30;;
11287;SDS011;5700;50.996;7.044;2024-02-16T08:08:50;2.38;;;1.10;;
11287;SDS011;5700;50.996;7.044;2024-02-16T08:11:55;6.40;;;1.38;;
11287;SDS011;5700;50.996;7.044;2024-02-16T08:14:56;3.90;;;1.30;;
11287;SDS011;5700;50.996;7.044;2024-02-16T08:17:59;4.15;;;1.27;;
11287;SDS011;5700;50.996;7.044;2024-02-16T08:21:00;4.43;;;1.40;;
11287;SDS011;5700;50.996;7.044;2024-02-16T08:24:02;2.58;;;1.52;;
11287;SDS011;5700;50.996;7.044;2024-02-16T08:27:06;3.83;;;1.50;;
11287;SDS011;5700;50.996;7.044;2024-02-16T08:30:07;3.40;;;1.40;;
11287;SDS011;5700;50.996;7.044;2024-02-16T08:33:11;4.97;;;1.25;;
11287;SDS011;5700;50.996;7.044;2024-02-16T08:36:13;3.90;;;1.58;;
11287;SDS011;5700;50.996;7.044;2024-02-16T08:39:15;3.40;;;1.58;;
11287;SDS011;5700;50.996;7.044;2024-02-16T08:42:21;4.75;;;1.63;;
11287;SDS011;5700;50.996;7.044;2024-02-16T08:45:23;2.58;;;0.98;;
11287;SDS011;5700;50.996;7.044;2024-02-16T08:48:25;4.22;;;1.70;;
11287;SDS011;5700;50.996;7.044;2024-02-16T08:51:27;3.55;;;1.40;;
11287;SDS011;5700;50.996;7.044;2024-02-16T08:54:28;2.10;;;1.20;;
11287;SDS011;5700;50.996;7.044;2024-02-16T08:57:32;5.28;;;1.67;;
11287;SDS011;5700;50.996;7.044;2024-02-16T09:00:35;3.30;;;1.48;;
11287;SDS011;5700;50.996;7.044;2024-02-16T09:03:36;3.17;;;1.48;;
11287;SDS011;5700;50.996;7.044;2024-02-16T09:06:40;3.58;;;1.10;;
11287;SDS011;5700;50.996;7.044;2024-02-16T09:09:41;2.22;;;1.40;;
11287;SDS011;5700;50.996;7.044;2024-02-16T09:12:44;5.40;;;1.85;;
11287;SDS011;5700;50.996;7.044;2024-02-16T09:15:46;4.35;;;1.40;;
11287;SDS011;5700;50.996;7.044;2024-02-16T09:18:48;3.40;;;1.60;;
11287;SDS011;5700;50.996;7.044;2024-02-16T09:21:50;3.33;;;1.55;;
11287;SDS011;5700;50.996;7.044;2024-02-16T09:24:54;3.47;;;1.40;;
11287;SDS011;5700;50.996;7.044;2024-02-16T09:28:01;3.25;;;1.50;;
11287;SDS011;5700;50.996;7.044;2024-02-16T09:31:03;3.13;;;1.30;;
11287;SDS011;5700;50.996;7.044;2024-02-16T09:34:04;4.13;;;1.27;;
11287;SDS011;5700;50.996;7.044;2024-02-16T09:37:06;1.45;;;1.20;;
11287;SDS011;5700;50.996;7.044;2024-02-16T09:40:08;5.47;;;1.85;;
11287;SDS011;5700;50.996;7.044;2024-02-16T09:43:23;3.00;;;1.52;;
11287;SDS011;5700;50.996;7.044;2024-02-16T09:46:25;3.15;;;1.40;;
11287;SDS011;5700;50.996;7.044;2024-02-16T09:49:27;2.15;;;1.40;;
11287;SDS011;5700;50.996;7.044;2024-02-16T09:52:29;2.67;;;1.27;;
11287;SDS011;5700;50.996;7.044;2024-02-16T09:55:31;5.28;;;1.50;;
11287;SDS011;5700;50.996;7.044;2024-02-16T09:58:35;4.75;;;1.27;;
11287;SDS011;5700;50.996;7.044;2024-02-16T10:01:37;4.47;;;1.73;;
11287;SDS011;5700;50.996;7.044;2024-02-16T10:04:39;4.35;;;1.30;;
11287;SDS011;5700;50.996;7.044;2024-02-16T10:07:41;3.78;;;1.17;;
11287;SDS011;5700;50.996;7.044;2024-02-16T10:10:43;4.82;;;1.75;;
11287;SDS011;5700;50.996;7.044;2024-02-16T10:13:55;5.70;;;1.83;;
11287;SDS011;5700;50.996;7.044;2024-02-16T10:16:59;3.88;;;1.55;;
11287;SDS011;5700;50.996;7.044;2024-02-16T10:20:00;4.57;;;1.52;;
11287;SDS011;5700;50.996;7.044;2024-02-16T10:23:06;3.35;;;1.63;;
11287;SDS011;5700;50.996;7.044;2024-02-16T10:26:09;2.90;;;1.40;;
11287;SDS011;5700;50.996;7.044;2024-02-16T10:29:15;4.03;;;1.85;;
11287;SDS011;5700;50.996;7.044;2024-02-16T10:32:19;4.68;;;1.63;;
11287;SDS011;5700;50.996;7.044;2024-02-16T10:35:23;3.38;;;1.40;;
11287;SDS011;5700;50.996;7.044;2024-02-16T10:38:26;4.75;;;1.70;;
11287;SDS011;5700;50.996;7.044;2024-02-16T10:41:28;3.03;;;1.13;;
11287;SDS011;5700;50.996;7.044;2024-02-16T10:44:31;2.92;;;1.23;;
11287;SDS011;5700;50.996;7.044;2024-02-16T10:47:33;4.32;;;1.38;;
11287;SDS011;5700;50.996;7.044;2024-02-16T10:50:36;7.43;;;1.52;;
11287;SDS011;5700;50.996;7.044;2024-02-16T10:53:38;3.60;;;1.75;;
11287;SDS011;5700;50.996;7.044;2024-02-16T10:56:40;4.13;;;1.40;;
11287;SDS011;5700;50.996;7.044;2024-02-16T10:59:43;4.82;;;1.40;;
11287;SDS011;5700;50.996;7.044;2024-02-16T11:02:51;4.50;;;2.13;;
11287;SDS011;5700;50.996;7.044;2024-02-16T11:05:55;3.30;;;1.50;;
11287;SDS011;5700;50.996;7.044;2024-02-16T11:09:01;2.90;;;1.50;;
11287;SDS011;5700;50.996;7.044;2024-02-16T11:12:08;3.60;;;1.40;;
11287;SDS011;5700;50.996;7.044;2024-02-16T11:15:13;3.50;;;1.58;;
11287;SDS011;5700;50.996;7.044;2024-02-16T11:18:15;8.20;;;2.03;;
11287;SDS011;5700;50.996;7.044;2024-02-16T11:21:16;4.63;;;1.52;;
11287;SDS011;5700;50.996;7.044;2024-02-16T11:24:18;4.10;;;2.00;;
11287;SDS011;5700;50.996;7.044;2024-02-16T11:27:23;4.30;;;1.70;;
11287;SDS011;5700;50.996;7.044;2024-02-16T11:30:27;3.65;;;1.52;;
11287;SDS011;5700;50.996;7.044;2024-02-16T11:33:29;2.22;;;1.50;;
11287;SDS011;5700;50.996;7.044;2024-02-16T11:36:31;3.88;;;1.65;;
11287;SDS011;5700;50.996;7.044;2024-02-16T11:39:33;3.42;;;1.60;;
11287;SDS011;5700;50.996;7.044;2024-02-16T11:42:37;3.75;;;1.58;;
11287;SDS011;5700;50.996;7.044;2024-02-16T11:45:40;5.25;;;1.85;;
11287;SDS011;5700;50.996;7.044;2024-02-16T11:48:42;6.50;;;1.73;;
11287;SDS011;5700;50.996;7.044;2024-02-16T11:51:43;4.07;;;1.88;;
11287;SDS011;5700;50.996;7.044;2024-02-16T11:54:45;3.72;;;1.70;;
11287;SDS011;5700;50.996;7.044;2024-02-16T11:57:46;3.38;;;1.70;;
11287;SDS011;5700;50.996;7.044;2024-02-16T12:00:52;2.85;;;1.50;;
11287;SDS011;5700;50.996;7.044;2024-02-16T12:03:53;4.78;;;1.70;;
11287;SDS011;5700;50.996;7.044;2024-02-16T12:06:55;4.13;;;1.73;;
11287;SDS011;5700;50.996;7.044;2024-02-16T12:09:57;4.80;;;1.73;;
11287;SDS011;5700;50.996;7.044;2024-02-16T12:12:59;3.50;;;1.65;;
11287;SDS011;5700;50.996;7.044;2024-02-16T12:16:02;6.85;;;1.88;;
11287;SDS011;5700;50.996;7.044;2024-02-16T12:19:05;4.90;;;1.73;;
11287;SDS011;5700;50.996;7.044;2024-02-16T12:22:07;5.20;;;2.00;;
11287;SDS011;5700;50.996;7.044;2024-02-16T12:25:09;3.47;;;1.50;;
11287;SDS011;5700;50.996;7.044;2024-02-16T12:28:10;4.60;;;1.80;;
11287;SDS011;5700;50.996;7.044;2024-02-16T12:31:18;3.78;;;1.67;;
11287;SDS011;5700;50.996;7.044;2024-02-16T12:34:20;3.92;;;1.85;;
11287;SDS011;5700;50.996;7.044;2024-02-16T12:37:22;4.78;;;1.45;;
11287;SDS011;5700;50.996;7.044;2024-02-16T12:40:23;3.50;;;1.75;;
11287;SDS011;5700;50.996;7.044;2024-02-16T12:43:25;3.95;;;2.15;;
11287;SDS011;5700;50.996;7.044;2024-02-16T12:46:28;4.15;;;2.03;;
11287;SDS011;5700;50.996;7.044;2024-02-16T12:49:29;4.60;;;2.05;;
11287;SDS011;5700;50.996;7.044;2024-02-16T12:52:31;4.50;;;2.00;;
11287;SDS011;5700;50.996;7.044;2024-02-16T12:55:35;3.10;;;1.73;;
11287;SDS011;5700;50.996;7.044;2024-02-16T12:58:37;6.18;;;2.80;;
11287;SDS011;5700;50.996;7.044;2024-02-16T13:01:41;5.15;;;2.13;;
11287;SDS011;5700;50.996;7.044;2024-02-16T13:04:43;5.05;;;2.00;;
11287;SDS011;5700;50.996;7.044;2024-02-16T13:07:44;5.55;;;1.85;;
11287;SDS011;5700;50.996;7.044;2024-02-16T13:10:46;5.18;;;2.05;;
11287;SDS011;5700;50.996;7.044;2024-02-16T13:13:48;4.03;;;1.80;;
11287;SDS011;5700;50.996;7.044;2024-02-16T13:16:52;5.22;;;2.10;;
11287;SDS011;5700;50.996;7.044;2024-02-16T13:19:55;4.35;;;2.20;;
11287;SDS011;5700;50.996;7.044;2024-02-16T13:23:03;7.28;;;2.05;;
11287;SDS011;5700;50.996;7.044;2024-02-16T13:26:04;4.75;;;2.20;;
11287;SDS011;5700;50.996;7.044;2024-02-16T13:29:06;3.92;;;1.80;;
11287;SDS011;5700;50.996;7.044;2024-02-16T13:32:09;6.75;;;2.28;;
11287;SDS011;5700;50.996;7.044;2024-02-16T13:35:11;7.50;;;2.40;;
11287;SDS011;5700;50.996;7.044;2024-02-16T13:38:13;4.45;;;2.22;;
11287;SDS011;5700;50.996;7.044;2024-02-16T13:41:15;5.60;;;2.20;;
11287;SDS011;5700;50.996;7.044;2024-02-16T13:44:17;7.22;;;2.67;;
11287;SDS011;5700;50.996;7.044;2024-02-16T13:47:20;6.53;;;2.45;;
11287;SDS011;5700;50.996;7.044;2024-02-16T13:50:23;5.38;;;2.10;;
11287;SDS011;5700;50.996;7.044;2024-02-16T13:53:25;5.68;;;2.13;;
11287;SDS011;5700;50.996;7.044;2024-02-16T13:56:26;5.30;;;2.63;;
11287;SDS011;5700;50.996;7.044;2024-02-16T13:59:28;5.45;;;2.53;;
11287;SDS011;5700;50.996;7.044;2024-02-16T14:02:32;5.80;;;2.58;;
11287;SDS011;5700;50.996;7.044;2024-02-16T14:05:34;5.47;;;2.35;;
11287;SDS011;5700;50.996;7.044;2024-02-16T14:08:36;5.75;;;2.70;;
11287;SDS011;5700;50.996;7.044;2024-02-16T14:11:39;7.47;;;2.90;;
11287;SDS011;5700;50.996;7.044;2024-02-16T14:14:43;5.57;;;2.80;;
11287;SDS011;5700;50.996;7.044;2024-02-16T14:17:46;5.65;;;2.80;;
11287;SDS011;5700;50.996;7.044;2024-02-16T14:20:47;5.22;;;2.75;;
11287;SDS011;5700;50.996;7.044;2024-02-16T14:23:49;5.55;;;2.70;;
11287;SDS011;5700;50.996;7.044;2024-02-16T14:26:50;4.85;;;2.25;;
11287;SDS011;5700;50.996;7.044;2024-02-16T14:29:52;8.27;;;2.50;;
11287;SDS011;5700;50.996;7.044;2024-02-16T14:32:56;6.97;;;3.35;;
11287;SDS011;5700;50.996;7.044;2024-02-16T14:35:57;6.82;;;3.50;;
11287;SDS011;5700;50.996;7.044;2024-02-16T14:38:59;6.40;;;2.83;;
11287;SDS011;5700;50.996;7.044;2024-02-16T14:42:01;8.52;;;4.00;;
11287;SDS011;5700;50.996;7.044;2024-02-16T14:45:03;8.35;;;3.92;;
11287;SDS011;5700;50.996;7.044;2024-02-16T14:48:10;9.02;;;4.40;;
11287;SDS011;5700;50.996;7.044;2024-02-16T14:51:12;7.47;;;4.00;;
11287;SDS011;5700;50.996;7.044;2024-02-16T14:54:13;11.45;;;5.07;;
11287;SDS011;5700;50.996;7.044;2024-02-16T14:57:15;7.72;;;4.22;;
11287;SDS011;5700;50.996;7.044;2024-02-16T15:00:20;10.73;;;5.20;;
11287;SDS011;5700;50.996;7.044;2024-02-16T15:03:25;10.07;;;4.60;;
11287;SDS011;5700;50.996;7.044;2024-02-16T15:06:30;11.30;;;5.60;;
11287;SDS011;5700;50.996;7.044;2024-02-16T15:09:33;11.40;;;5.85;;
11287;SDS011;5700;50.996;7.044;2024-02-16T15:12:35;9.95;;;4.82;;
11287;SDS011;5700;50.996;7.044;2024-02-16T15:15:40;11.25;;;4.72;;
11287;SDS011;5700;50.996;7.044;2024-02-16T15:18:43;12.63;;;6.30;;
11287;SDS011;5700;50.996;7.044;2024-02-16T15:21:45;13.52;;;6.93;;
11287;SDS011;5700;50.996;7.044;2024-02-16T15:24:47;12.15;;;7.63;;
11287;SDS011;5700;50.996;7.044;2024-02-16T15:27:48;14.20;;;7.43;;
11287;SDS011;5700;50.996;7.044;2024-02-16T15:30:50;10.00;;;6.25;;
11287;SDS011;5700;50.996;7.044;2024-02-16T15:33:53;8.95;;;5.97;;
11287;SDS011;5700;50.996;7.044;2024-02-16T15:36:55;10.88;;;6.13;;
11287;SDS011;5700;50.996;7.044;2024-02-16T15:39:58;8.88;;;6.20;;
11287;SDS011;5700;50.996;7.044;2024-02-16T15:43:00;9.98;;;5.30;;
11287;SDS011;5700;50.996;7.044;2024-02-16T15:46:03;9.60;;;5.35;;
11287;SDS011;5700;50.996;7.044;2024-02-16T15:49:06;12.55;;;6.63;;
11287;SDS011;5700;50.996;7.044;2024-02-16T15:52:09;11.00;;;6.07;;
11287;SDS011;5700;50.996;7.044;2024-02-16T15:55:10;9.88;;;5.63;;
11287;SDS011;5700;50.996;7.044;2024-02-16T15:58:13;9.43;;;6.07;;
11287;SDS011;5700;50.996;7.044;2024-02-16T16:01:14;8.88;;;5.82;;
11287;SDS011;5700;50.996;7.044;2024-02-16T16:04:17;11.27;;;6.13;;
11287;SDS011;5700;50.996;7.044;2024-02-16T16:07:18;10.20;;;5.72;;
11287;SDS011;5700;50.996;7.044;2024-02-16T16:10:20;8.93;;;5.72;;
11287;SDS011;5700;50.996;7.044;2024-02-16T16:13:22;8.10;;;4.82;;
11287;SDS011;5700;50.996;7.044;2024-02-16T16:16:23;9.73;;;5.65;;
11287;SDS011;5700;50.996;7.044;2024-02-16T16:19:26;8.95;;;4.65;;
11287;SDS011;5700;50.996;7.044;2024-02-16T16:22:28;7.93;;;4.35;;
11287;SDS011;5700;50.996;7.044;2024-02-16T16:25:30;7.25;;;4.63;;
11287;SDS011;5700;50.996;7.044;2024-02-16T16:28:32;8.13;;;3.97;;
11287;SDS011;5700;50.996;7.044;2024-02-16T16:31:33;6.20;;;3.65;;
11287;SDS011;5700;50.996;7.044;2024-02-16T16:34:36;7.57;;;4.75;;
11287;SDS011;5700;50.996;7.044;2024-02-16T16:37:37;7.13;;;4.38;;
11287;SDS011;5700;50.996;7.044;2024-02-16T16:40:39;7.63;;;4.47;;
11287;SDS011;5700;50.996;7.044;2024-02-16T16:43:41;9.13;;;5.60;;
11287;SDS011;5700;50.996;7.044;2024-02-16T16:46:43;11.48;;;5.10;;
11287;SDS011;5700;50.996;7.044;2024-02-16T16:49:45;12.25;;;5.97;;
11287;SDS011;5700;50.996;7.044;2024-02-16T16:52:47;11.40;;;6.50;;
11287;SDS011;5700;50.996;7.044;2024-02-16T16:55:49;10.95;;;6.88;;
11287;SDS011;5700;50.996;7.044;2024-02-16T16:58:50;10.50;;;5.82;;
11287;SDS011;5700;50.996;7.044;2024-02-16T17:01:52;11.80;;;6.63;;
11287;SDS011;5700;50.996;7.044;2024-02-16T17:04:55;13.40;;;7.00;;
11287;SDS011;5700;50.996;7.044;2024-02-16T17:07:57;13.27;;;7.57;;
11287;SDS011;5700;50.996;7.044;2024-02-16T17:11:01;13.88;;;7.07;;
11287;SDS011;5700;50.996;7.044;2024-02-16T17:14:03;14.13;;;6.50;;
11287;SDS011;5700;50.996;7.044;2024-02-16T17:17:05;14.45;;;6.60;;
11287;SDS011;5700;50.996;7.044;2024-02-16T17:20:08;11.05;;;6.75;;
11287;SDS011;5700;50.996;7.044;2024-02-16T17:23:11;11.90;;;7.07;;
11287;SDS011;5700;50.996;7.044;2024-02-16T17:26:12;10.10;;;6.22;;
11287;SDS011;5700;50.996;7.044;2024-02-16T17:29:14;12.13;;;7.22;;
11287;SDS011;5700;50.996;7.044;2024-02-16T17:32:16;13.18;;;7.05;;
11287;SDS011;5700;50.996;7.044;2024-02-16T17:35:18;12.23;;;6.30;;
11287;SDS011;5700;50.996;7.044;2024-02-16T17:38:20;12.18;;;6.90;;
11287;SDS011;5700;50.996;7.044;2024-02-16T17:41:21;10.35;;;5.90;;
11287;SDS011;5700;50.996;7.044;2024-02-16T17:44:23;10.93;;;5.97;;
11287;SDS011;5700;50.996;7.044;2024-02-16T17:47:24;9.77;;;5.63;;
11287;SDS011;5700;50.996;7.044;2024-02-16T17:50:28;11.32;;;5.60;;
11287;SDS011;5700;50.996;7.044;2024-02-16T17:53:29;14.32;;;6.95;;
11287;SDS011;5700;50.996;7.044;2024-02-16T17:56:31;14.60;;;7.25;;
11287;SDS011;5700;50.996;7.044;2024-02-16T17:59:32;12.80;;;8.02;;
11287;SDS011;5700;50.996;7.044;2024-02-16T18:02:33;11.63;;;7.22;;
11287;SDS011;5700;50.996;7.044;2024-02-16T18:05:37;8.10;;;5.40;;
11287;SDS011;5700;50.996;7.044;2024-02-16T18:08:39;11.50;;;6.90;;
11287;SDS011;5700;50.996;7.044;2024-02-16T18:11:40;11.70;;;6.68;;
11287;SDS011;5700;50.996;7.044;2024-02-16T18:14:42;10.75;;;6.75;;
11287;SDS011;5700;50.996;7.044;2024-02-16T18:17:43;10.35;;;6.45;;
11287;SDS011;5700;50.996;7.044;2024-02-16T18:20:46;12.25;;;7.50;;
11287;SDS011;5700;50.996;7.044;2024-02-16T18:23:49;11.60;;;6.57;;
11287;SDS011;5700;50.996;7.044;2024-02-16T18:26:51;14.68;;;6.57;;
11287;SDS011;5700;50.996;7.044;2024-02-16T18:29:53;13.55;;;7.05;;
11287;SDS011;5700;50.996;7.044;2024-02-16T18:32:56;11.30;;;6.80;;
11287;SDS011;5700;50.996;7.044;2024-02-16T18:35:59;14.40;;;8.93;;